sensor_id;sensor_type;location;lat;lon;timestamp;pressure;altitude;pressure_sealevel;temperature
24639;BMP180;1641;51.306;12.384;2023-03-14T00:02:20;97927.00;;;13.30
24639;BMP180;1641;51.306;12.384;2023-03-14T00:04:57;97895.00;;;13.50
24639;BMP180;1641;51.306;12.384;2023-03-14T00:07:22;97896.00;;;13.40
24639;BMP180;1641;51.306;12.384;2023-03-14T00:09:50;97930.00;;;13.40
24639;BMP180;1641;51.306;12.384;2023-03-14T00:12:15;97919.00;;;13.20
24639;BMP180;1641;51.306;12.384;2023-03-14T00:14:41;97891.00;;;13.00
24639;BMP180;1641;51.306;12.384;2023-03-14T00:17:13;97888.00;;;13.20
24639;BMP180;1641;51.306;12.384;2023-03-14T00:19:41;97917.00;;;13.20
24639;BMP180;1641;51.306;12.384;2023-03-14T00:22:07;97924.00;;;13.20
24639;BMP180;1641;51.306;12.384;2023-03-14T00:24:32;97921.00;;;13.20
24639;BMP180;1641;51.306;12.384;2023-03-14T00:27:01;97914.00;;;13.20
24639;BMP180;1641;51.306;12.384;2023-03-14T00:29:29;97929.00;;;13.40
24639;BMP180;1641;51.306;12.384;2023-03-14T00:31:55;97929.00;;;13.40
24639;BMP180;1641;51.306;12.384;2023-03-14T00:34:21;97930.00;;;13.30
24639;BMP180;1641;51.306;12.384;2023-03-14T00:36:59;97948.00;;;13.20
24639;BMP180;1641;51.306;12.384;2023-03-14T00:39:26;97961.00;;;13.30
24639;BMP180;1641;51.306;12.384;2023-03-14T00:41:51;97953.00;;;13.20
24639;BMP180;1641;51.306;12.384;2023-03-14T00:44:16;97967.00;;;13.30
24639;BMP180;1641;51.306;12.384;2023-03-14T00:46:41;97921.00;;;13.20
24639;BMP180;1641;51.306;12.384;2023-03-14T00:49:07;97946.00;;;13.00
24639;BMP180;1641;51.306;12.384;2023-03-14T00:51:44;97903.00;;;13.00
24639;BMP180;1641;51.306;12.384;2023-03-14T00:54:10;97950.00;;;13.00
24639;BMP180;1641;51.306;12.384;2023-03-14T00:56:44;97949.00;;;13.00
24639;BMP180;1641;51.306;12.384;2023-03-14T00:59:09;97945.00;;;13.10
24639;BMP180;1641;51.306;12.384;2023-03-14T01:01:35;97945.00;;;13.10
24639;BMP180;1641;51.306;12.384;2023-03-14T01:04:00;97946.00;;;13.10
24639;BMP180;1641;51.306;12.384;2023-03-14T01:06:27;97958.00;;;13.00
24639;BMP180;1641;51.306;12.384;2023-03-14T01:08:54;97977.00;;;13.10
24639;BMP180;1641;51.306;12.384;2023-03-14T01:11:26;97986.00;;;13.00
24639;BMP180;1641;51.306;12.384;2023-03-14T01:13:51;97937.00;;;13.10
24639;BMP180;1641;51.306;12.384;2023-03-14T01:16:18;97974.00;;;13.30
24639;BMP180;1641;51.306;12.384;2023-03-14T01:18:44;97990.00;;;13.20
24639;BMP180;1641;51.306;12.384;2023-03-14T01:21:13;97982.00;;;13.10
24639;BMP180;1641;51.306;12.384;2023-03-14T01:23:40;97983.00;;;13.10
24639;BMP180;1641;51.306;12.384;2023-03-14T01:26:09;97989.00;;;13.00
24639;BMP180;1641;51.306;12.384;2023-03-14T01:28:35;97999.00;;;12.90
24639;BMP180;1641;51.306;12.384;2023-03-14T01:31:04;97982.00;;;13.00
24639;BMP180;1641;51.306;12.384;2023-03-14T01:33:29;97986.00;;;13.00
24639;BMP180;1641;51.306;12.384;2023-03-14T01:35:55;97992.00;;;13.20
24639;BMP180;1641;51.306;12.384;2023-03-14T01:38:20;98001.00;;;13.20
24639;BMP180;1641;51.306;12.384;2023-03-14T01:40:52;97986.00;;;13.10
24639;BMP180;1641;51.306;12.384;2023-03-14T01:43:19;97978.00;;;13.10
24639;BMP180;1641;51.306;12.384;2023-03-14T01:48:34;97987.00;;;13.00
24639;BMP180;1641;51.306;12.384;2023-03-14T01:51:06;97978.00;;;13.20
24639;BMP180;1641;51.306;12.384;2023-03-14T01:53:36;97979.00;;;13.20
24639;BMP180;1641;51.306;12.384;2023-03-14T01:56:02;97984.00;;;13.00
24639;BMP180;1641;51.306;12.384;2023-03-14T01:58:30;97981.00;;;13.10
24639;BMP180;1641;51.306;12.384;2023-03-14T02:01:01;97966.00;;;13.10
24639;BMP180;1641;51.306;12.384;2023-03-14T02:03:29;97963.00;;;13.10
24639;BMP180;1641;51.306;12.384;2023-03-14T02:05:58;97955.00;;;13.00
24639;BMP180;1641;51.306;12.384;2023-03-14T02:08:26;97955.00;;;13.20
24639;BMP180;1641;51.306;12.384;2023-03-14T02:10:52;97929.00;;;13.30
24639;BMP180;1641;51.306;12.384;2023-03-14T02:13:27;97943.00;;;13.30
24639;BMP180;1641;51.306;12.384;2023-03-14T02:15:52;97945.00;;;13.40
24639;BMP180;1641;51.306;12.384;2023-03-14T02:18:18;97891.00;;;12.80
24639;BMP180;1641;51.306;12.384;2023-03-14T02:20:50;97949.00;;;12.80
24639;BMP180;1641;51.306;12.384;2023-03-14T02:26:17;97915.00;;;12.90
24639;BMP180;1641;51.306;12.384;2023-03-14T02:28:44;97924.00;;;12.80
24639;BMP180;1641;51.306;12.384;2023-03-14T02:31:10;97917.00;;;12.70
24639;BMP180;1641;51.306;12.384;2023-03-14T02:33:37;97913.00;;;12.70
24639;BMP180;1641;51.306;12.384;2023-03-14T02:36:06;97904.00;;;12.80
24639;BMP180;1641;51.306;12.384;2023-03-14T02:41:16;97894.00;;;12.90
24639;BMP180;1641;51.306;12.384;2023-03-14T02:43:42;97906.00;;;12.90
24639;BMP180;1641;51.306;12.384;2023-03-14T02:46:10;97899.00;;;12.90
24639;BMP180;1641;51.306;12.384;2023-03-14T02:49:10;97900.00;;;12.80
24639;BMP180;1641;51.306;12.384;2023-03-14T02:51:37;97884.00;;;12.90
24639;BMP180;1641;51.306;12.384;2023-03-14T02:54:03;97888.00;;;12.90
24639;BMP180;1641;51.306;12.384;2023-03-14T02:56:28;97885.00;;;12.90
24639;BMP180;1641;51.306;12.384;2023-03-14T02:58:54;97885.00;;;12.70
24639;BMP180;1641;51.306;12.384;2023-03-14T03:01:19;97870.00;;;12.80
24639;BMP180;1641;51.306;12.384;2023-03-14T03:04:03;97884.00;;;12.60
24639;BMP180;1641;51.306;12.384;2023-03-14T03:06:28;97881.00;;;12.80
24639;BMP180;1641;51.306;12.384;2023-03-14T03:08:54;97878.00;;;13.00
24639;BMP180;1641;51.306;12.384;2023-03-14T03:11:19;97833.00;;;12.80
24639;BMP180;1641;51.306;12.384;2023-03-14T03:13:44;97890.00;;;12.70
24639;BMP180;1641;51.306;12.384;2023-03-14T03:16:10;97873.00;;;12.80
24639;BMP180;1641;51.306;12.384;2023-03-14T03:18:38;97854.00;;;12.70
24639;BMP180;1641;51.306;12.384;2023-03-14T03:21:04;97898.00;;;12.80
24639;BMP180;1641;51.306;12.384;2023-03-14T03:23:30;97899.00;;;12.90
24639;BMP180;1641;51.306;12.384;2023-03-14T03:25:56;97860.00;;;12.90
24639;BMP180;1641;51.306;12.384;2023-03-14T03:28:21;97889.00;;;13.20
24639;BMP180;1641;51.306;12.384;2023-03-14T03:30:49;97878.00;;;13.30
24639;BMP180;1641;51.306;12.384;2023-03-14T03:33:17;97843.00;;;13.10
24639;BMP180;1641;51.306;12.384;2023-03-14T03:35:50;97868.00;;;13.20
24639;BMP180;1641;51.306;12.384;2023-03-14T03:38:16;97852.00;;;13.30
24639;BMP180;1641;51.306;12.384;2023-03-14T03:40:42;97854.00;;;13.30
24639;BMP180;1641;51.306;12.384;2023-03-14T03:43:13;97852.00;;;13.20
24639;BMP180;1641;51.306;12.384;2023-03-14T03:45:44;97845.00;;;13.20
24639;BMP180;1641;51.306;12.384;2023-03-14T03:48:09;97848.00;;;13.20
24639;BMP180;1641;51.306;12.384;2023-03-14T03:50:35;97840.00;;;13.30
24639;BMP180;1641;51.306;12.384;2023-03-14T03:53:00;97844.00;;;13.10
24639;BMP180;1641;51.306;12.384;2023-03-14T03:55:25;97827.00;;;13.30
24639;BMP180;1641;51.306;12.384;2023-03-14T03:57:53;97832.00;;;13.40
24639;BMP180;1641;51.306;12.384;2023-03-14T04:00:18;97846.00;;;13.00
24639;BMP180;1641;51.306;12.384;2023-03-14T04:02:43;97834.00;;;13.20
24639;BMP180;1641;51.306;12.384;2023-03-14T04:05:09;97778.00;;;13.30
24639;BMP180;1641;51.306;12.384;2023-03-14T04:07:34;97840.00;;;13.40
24639;BMP180;1641;51.306;12.384;2023-03-14T04:10:00;97822.00;;;13.20
24639;BMP180;1641;51.306;12.384;2023-03-14T04:12:25;97817.00;;;13.20
24639;BMP180;1641;51.306;12.384;2023-03-14T04:14:50;97852.00;;;13.50
24639;BMP180;1641;51.306;12.384;2023-03-14T04:17:15;97841.00;;;13.30
24639;BMP180;1641;51.306;12.384;2023-03-14T04:19:41;97844.00;;;13.30
24639;BMP180;1641;51.306;12.384;2023-03-14T04:22:07;97836.00;;;13.40
24639;BMP180;1641;51.306;12.384;2023-03-14T04:24:32;97828.00;;;13.30
24639;BMP180;1641;51.306;12.384;2023-03-14T04:26:57;97838.00;;;13.30
24639;BMP180;1641;51.306;12.384;2023-03-14T04:29:23;97828.00;;;13.10
24639;BMP180;1641;51.306;12.384;2023-03-14T04:31:48;97821.00;;;13.00
24639;BMP180;1641;51.306;12.384;2023-03-14T04:34:13;97819.00;;;13.20
24639;BMP180;1641;51.306;12.384;2023-03-14T04:36:38;97808.00;;;13.00
24639;BMP180;1641;51.306;12.384;2023-03-14T04:39:04;97815.00;;;13.00
24639;BMP180;1641;51.306;12.384;2023-03-14T04:41:29;97817.00;;;12.90
24639;BMP180;1641;51.306;12.384;2023-03-14T04:43:54;97814.00;;;12.80
24639;BMP180;1641;51.306;12.384;2023-03-14T04:46:19;97804.00;;;12.90
24639;BMP180;1641;51.306;12.384;2023-03-14T04:48:45;97760.00;;;12.80
24639;BMP180;1641;51.306;12.384;2023-03-14T04:51:10;97776.00;;;12.80
24639;BMP180;1641;51.306;12.384;2023-03-14T04:53:35;97784.00;;;12.70
24639;BMP180;1641;51.306;12.384;2023-03-14T04:56:02;97783.00;;;12.70
24639;BMP180;1641;51.306;12.384;2023-03-14T04:58:27;97777.00;;;12.80
24639;BMP180;1641;51.306;12.384;2023-03-14T05:00:52;97789.00;;;12.80
24639;BMP180;1641;51.306;12.384;2023-03-14T05:03:18;97780.00;;;12.90
24639;BMP180;1641;51.306;12.384;2023-03-14T05:05:44;97796.00;;;13.00
24639;BMP180;1641;51.306;12.384;2023-03-14T05:08:10;97793.00;;;13.00
24639;BMP180;1641;51.306;12.384;2023-03-14T05:10:36;97791.00;;;12.80
24639;BMP180;1641;51.306;12.384;2023-03-14T05:13:02;97788.00;;;12.60
24639;BMP180;1641;51.306;12.384;2023-03-14T05:15:27;97794.00;;;12.90
24639;BMP180;1641;51.306;12.384;2023-03-14T05:17:53;97794.00;;;12.70
24639;BMP180;1641;51.306;12.384;2023-03-14T05:20:19;97771.00;;;12.50
24639;BMP180;1641;51.306;12.384;2023-03-14T05:22:46;97768.00;;;12.70
24639;BMP180;1641;51.306;12.384;2023-03-14T05:25:11;97744.00;;;12.80
24639;BMP180;1641;51.306;12.384;2023-03-14T05:27:36;97754.00;;;12.90
24639;BMP180;1641;51.306;12.384;2023-03-14T05:30:04;97757.00;;;12.60
24639;BMP180;1641;51.306;12.384;2023-03-14T05:32:30;97760.00;;;13.00
24639;BMP180;1641;51.306;12.384;2023-03-14T05:34:55;97765.00;;;12.90
24639;BMP180;1641;51.306;12.384;2023-03-14T05:37:24;97767.00;;;13.00
24639;BMP180;1641;51.306;12.384;2023-03-14T05:39:50;97761.00;;;12.90
24639;BMP180;1641;51.306;12.384;2023-03-14T05:42:15;97768.00;;;12.90
24639;BMP180;1641;51.306;12.384;2023-03-14T05:44:40;97761.00;;;13.00
24639;BMP180;1641;51.306;12.384;2023-03-14T05:47:05;97739.00;;;12.90
24639;BMP180;1641;51.306;12.384;2023-03-14T05:49:31;97756.00;;;12.90
24639;BMP180;1641;51.306;12.384;2023-03-14T05:51:56;97734.00;;;12.60
24639;BMP180;1641;51.306;12.384;2023-03-14T05:54:21;97757.00;;;12.70
24639;BMP180;1641;51.306;12.384;2023-03-14T05:56:46;97765.00;;;12.90
24639;BMP180;1641;51.306;12.384;2023-03-14T05:59:12;97734.00;;;12.90
24639;BMP180;1641;51.306;12.384;2023-03-14T06:01:39;97770.00;;;13.20
24639;BMP180;1641;51.306;12.384;2023-03-14T06:04:04;97740.00;;;13.20
24639;BMP180;1641;51.306;12.384;2023-03-14T06:06:30;97773.00;;;13.00
24639;BMP180;1641;51.306;12.384;2023-03-14T06:08:55;97788.00;;;13.20
24639;BMP180;1641;51.306;12.384;2023-03-14T06:11:24;97781.00;;;13.30
24639;BMP180;1641;51.306;12.384;2023-03-14T06:13:50;97803.00;;;13.50
24639;BMP180;1641;51.306;12.384;2023-03-14T06:16:16;97805.00;;;13.20
24639;BMP180;1641;51.306;12.384;2023-03-14T06:18:41;97804.00;;;13.00
24639;BMP180;1641;51.306;12.384;2023-03-14T06:21:06;97811.00;;;13.10
24639;BMP180;1641;51.306;12.384;2023-03-14T06:23:32;97816.00;;;12.90
24639;BMP180;1641;51.306;12.384;2023-03-14T06:25:57;97817.00;;;13.00
24639;BMP180;1641;51.306;12.384;2023-03-14T06:28:23;97817.00;;;13.10
24639;BMP180;1641;51.306;12.384;2023-03-14T06:30:48;97799.00;;;13.10
24639;BMP180;1641;51.306;12.384;2023-03-14T06:33:13;97805.00;;;13.40
24639;BMP180;1641;51.306;12.384;2023-03-14T06:35:41;97806.00;;;13.70
24639;BMP180;1641;51.306;12.384;2023-03-14T06:38:07;97779.00;;;13.60
24639;BMP180;1641;51.306;12.384;2023-03-14T06:40:38;97803.00;;;13.30
24639;BMP180;1641;51.306;12.384;2023-03-14T06:43:03;97804.00;;;13.00
24639;BMP180;1641;51.306;12.384;2023-03-14T06:45:30;97805.00;;;13.30
24639;BMP180;1641;51.306;12.384;2023-03-14T06:47:55;97802.00;;;13.30
24639;BMP180;1641;51.306;12.384;2023-03-14T06:50:23;97746.00;;;13.40
24639;BMP180;1641;51.306;12.384;2023-03-14T06:52:48;97781.00;;;13.40
24639;BMP180;1641;51.306;12.384;2023-03-14T06:55:15;97804.00;;;13.40
24639;BMP180;1641;51.306;12.384;2023-03-14T06:57:40;97817.00;;;13.40
24639;BMP180;1641;51.306;12.384;2023-03-14T07:00:22;97818.00;;;13.50
24639;BMP180;1641;51.306;12.384;2023-03-14T07:02:47;97810.00;;;13.30
24639;BMP180;1641;51.306;12.384;2023-03-14T07:05:16;97802.00;;;13.30
24639;BMP180;1641;51.306;12.384;2023-03-14T07:07:47;97808.00;;;13.20
24639;BMP180;1641;51.306;12.384;2023-03-14T07:10:13;97813.00;;;13.50
24639;BMP180;1641;51.306;12.384;2023-03-14T07:12:38;97810.00;;;13.50
24639;BMP180;1641;51.306;12.384;2023-03-14T07:15:03;97813.00;;;13.70
24639;BMP180;1641;51.306;12.384;2023-03-14T07:17:29;97814.00;;;13.80
24639;BMP180;1641;51.306;12.384;2023-03-14T07:19:54;97800.00;;;13.90
24639;BMP180;1641;51.306;12.384;2023-03-14T07:22:20;97799.00;;;13.70
24639;BMP180;1641;51.306;12.384;2023-03-14T07:24:57;97792.00;;;13.80
24639;BMP180;1641;51.306;12.384;2023-03-14T07:27:22;97792.00;;;13.80
24639;BMP180;1641;51.306;12.384;2023-03-14T07:29:51;97755.00;;;13.70
24639;BMP180;1641;51.306;12.384;2023-03-14T07:32:16;97787.00;;;13.60
24639;BMP180;1641;51.306;12.384;2023-03-14T07:34:41;97789.00;;;14.00
24639;BMP180;1641;51.306;12.384;2023-03-14T07:37:07;97780.00;;;14.50
24639;BMP180;1641;51.306;12.384;2023-03-14T07:39:32;97782.00;;;14.60
24639;BMP180;1641;51.306;12.384;2023-03-14T07:42:01;97791.00;;;14.60
24639;BMP180;1641;51.306;12.384;2023-03-14T07:44:26;97785.00;;;14.70
24639;BMP180;1641;51.306;12.384;2023-03-14T07:46:52;97776.00;;;14.70
24639;BMP180;1641;51.306;12.384;2023-03-14T07:49:20;97787.00;;;15.00
24639;BMP180;1641;51.306;12.384;2023-03-14T07:51:52;97791.00;;;14.60
24639;BMP180;1641;51.306;12.384;2023-03-14T07:54:20;97773.00;;;15.20
24639;BMP180;1641;51.306;12.384;2023-03-14T07:56:45;97804.00;;;16.50
24639;BMP180;1641;51.306;12.384;2023-03-14T07:59:10;97782.00;;;17.30
24639;BMP180;1641;51.306;12.384;2023-03-14T08:01:43;97806.00;;;16.10
24639;BMP180;1641;51.306;12.384;2023-03-14T08:04:08;97802.00;;;16.00
24639;BMP180;1641;51.306;12.384;2023-03-14T08:06:40;97804.00;;;16.00
24639;BMP180;1641;51.306;12.384;2023-03-14T08:09:05;97807.00;;;16.00
24639;BMP180;1641;51.306;12.384;2023-03-14T08:11:30;97812.00;;;15.90
24639;BMP180;1641;51.306;12.384;2023-03-14T08:13:56;97804.00;;;15.60
24639;BMP180;1641;51.306;12.384;2023-03-14T08:16:21;97792.00;;;15.60
24639;BMP180;1641;51.306;12.384;2023-03-14T08:18:47;97783.00;;;16.60
24639;BMP180;1641;51.306;12.384;2023-03-14T08:21:15;97790.00;;;17.70
24639;BMP180;1641;51.306;12.384;2023-03-14T08:23:40;97794.00;;;17.70
24639;BMP180;1641;51.306;12.384;2023-03-14T08:26:06;97792.00;;;16.80
24639;BMP180;1641;51.306;12.384;2023-03-14T08:28:32;97759.00;;;16.40
24639;BMP180;1641;51.306;12.384;2023-03-14T08:30:58;97800.00;;;16.30
24639;BMP180;1641;51.306;12.384;2023-03-14T08:33:24;97779.00;;;15.80
24639;BMP180;1641;51.306;12.384;2023-03-14T08:35:54;97759.00;;;16.20
24639;BMP180;1641;51.306;12.384;2023-03-14T08:38:19;97796.00;;;16.00
24639;BMP180;1641;51.306;12.384;2023-03-14T08:40:45;97754.00;;;15.70
24639;BMP180;1641;51.306;12.384;2023-03-14T08:43:10;97757.00;;;15.50
24639;BMP180;1641;51.306;12.384;2023-03-14T08:45:35;97748.00;;;15.40
24639;BMP180;1641;51.306;12.384;2023-03-14T08:48:00;97803.00;;;15.40
24639;BMP180;1641;51.306;12.384;2023-03-14T08:50:26;97804.00;;;15.70
24639;BMP180;1641;51.306;12.384;2023-03-14T08:52:51;97799.00;;;15.30
24639;BMP180;1641;51.306;12.384;2023-03-14T08:55:17;97806.00;;;15.10
24639;BMP180;1641;51.306;12.384;2023-03-14T08:57:42;97821.00;;;15.50
24639;BMP180;1641;51.306;12.384;2023-03-14T09:00:08;97802.00;;;16.00
24639;BMP180;1641;51.306;12.384;2023-03-14T09:02:36;97771.00;;;15.90
24639;BMP180;1641;51.306;12.384;2023-03-14T09:05:01;97799.00;;;15.80
24639;BMP180;1641;51.306;12.384;2023-03-14T09:07:27;97806.00;;;15.80
24639;BMP180;1641;51.306;12.384;2023-03-14T09:09:52;97816.00;;;16.00
24639;BMP180;1641;51.306;12.384;2023-03-14T09:12:17;97814.00;;;15.90
24639;BMP180;1641;51.306;12.384;2023-03-14T09:14:42;97761.00;;;16.00
24639;BMP180;1641;51.306;12.384;2023-03-14T09:17:08;97779.00;;;16.10
24639;BMP180;1641;51.306;12.384;2023-03-14T09:19:33;97809.00;;;15.90
24639;BMP180;1641;51.306;12.384;2023-03-14T09:21:58;97812.00;;;15.80
24639;BMP180;1641;51.306;12.384;2023-03-14T09:24:24;97814.00;;;16.10
24639;BMP180;1641;51.306;12.384;2023-03-14T09:26:49;97786.00;;;15.80
24639;BMP180;1641;51.306;12.384;2023-03-14T09:29:14;97818.00;;;15.70
24639;BMP180;1641;51.306;12.384;2023-03-14T09:31:39;97814.00;;;15.70
24639;BMP180;1641;51.306;12.384;2023-03-14T09:34:05;97768.00;;;15.90
24639;BMP180;1641;51.306;12.384;2023-03-14T09:36:30;97813.00;;;15.70
24639;BMP180;1641;51.306;12.384;2023-03-14T09:38:55;97814.00;;;15.90
24639;BMP180;1641;51.306;12.384;2023-03-14T09:41:43;97802.00;;;16.20
24639;BMP180;1641;51.306;12.384;2023-03-14T09:44:10;97819.00;;;16.00
24639;BMP180;1641;51.306;12.384;2023-03-14T09:46:38;97809.00;;;15.70
24639;BMP180;1641;51.306;12.384;2023-03-14T09:49:10;97823.00;;;15.60
24639;BMP180;1641;51.306;12.384;2023-03-14T09:51:36;97819.00;;;15.70
24639;BMP180;1641;51.306;12.384;2023-03-14T09:54:05;97802.00;;;16.10
24639;BMP180;1641;51.306;12.384;2023-03-14T09:56:32;97789.00;;;15.90
24639;BMP180;1641;51.306;12.384;2023-03-14T09:59:00;97822.00;;;16.00
24639;BMP180;1641;51.306;12.384;2023-03-14T10:01:31;97816.00;;;15.80
24639;BMP180;1641;51.306;12.384;2023-03-14T10:04:12;97805.00;;;15.50
24639;BMP180;1641;51.306;12.384;2023-03-14T10:06:39;97826.00;;;15.40
24639;BMP180;1641;51.306;12.384;2023-03-14T10:09:05;97808.00;;;15.30
24639;BMP180;1641;51.306;12.384;2023-03-14T10:11:30;97825.00;;;15.50
24639;BMP180;1641;51.306;12.384;2023-03-14T10:16:32;97816.00;;;16.30
24639;BMP180;1641;51.306;12.384;2023-03-14T10:19:06;97814.00;;;15.70
24639;BMP180;1641;51.306;12.384;2023-03-14T10:21:37;97827.00;;;15.80
24639;BMP180;1641;51.306;12.384;2023-03-14T10:27:18;97818.00;;;15.70
24639;BMP180;1641;51.306;12.384;2023-03-14T10:29:57;97824.00;;;15.60
24639;BMP180;1641;51.306;12.384;2023-03-14T10:32:29;97821.00;;;15.20
24639;BMP180;1641;51.306;12.384;2023-03-14T10:37:59;97808.00;;;15.50
24639;BMP180;1641;51.306;12.384;2023-03-14T10:40:42;97805.00;;;15.50
24639;BMP180;1641;51.306;12.384;2023-03-14T10:43:17;97819.00;;;15.30
24639;BMP180;1641;51.306;12.384;2023-03-14T10:45:52;97805.00;;;15.30
24639;BMP180;1641;51.306;12.384;2023-03-14T10:48:24;97811.00;;;15.40
24639;BMP180;1641;51.306;12.384;2023-03-14T10:51:12;97815.00;;;15.40
24639;BMP180;1641;51.306;12.384;2023-03-14T10:53:59;97804.00;;;15.80
24639;BMP180;1641;51.306;12.384;2023-03-14T10:56:26;97812.00;;;15.50
24639;BMP180;1641;51.306;12.384;2023-03-14T10:58:57;97801.00;;;16.10
24639;BMP180;1641;51.306;12.384;2023-03-14T11:01:39;97805.00;;;16.00
24639;BMP180;1641;51.306;12.384;2023-03-14T11:04:21;97821.00;;;16.00
24639;BMP180;1641;51.306;12.384;2023-03-14T11:06:59;97819.00;;;15.90
24639;BMP180;1641;51.306;12.384;2023-03-14T11:15:03;97846.00;;;14.80
24639;BMP180;1641;51.306;12.384;2023-03-14T11:17:55;97847.00;;;14.60
24639;BMP180;1641;51.306;12.384;2023-03-14T11:23:16;97836.00;;;15.10
24639;BMP180;1641;51.306;12.384;2023-03-14T11:25:52;97839.00;;;15.30
24639;BMP180;1641;51.306;12.384;2023-03-14T11:28:33;97843.00;;;15.60
24639;BMP180;1641;51.306;12.384;2023-03-14T11:31:11;97825.00;;;15.70
24639;BMP180;1641;51.306;12.384;2023-03-14T11:33:52;97822.00;;;16.00
24639;BMP180;1641;51.306;12.384;2023-03-14T11:39:11;97815.00;;;16.10
24639;BMP180;1641;51.306;12.384;2023-03-14T11:41:45;97804.00;;;16.10
24639;BMP180;1641;51.306;12.384;2023-03-14T11:44:33;97814.00;;;15.90
24639;BMP180;1641;51.306;12.384;2023-03-14T11:47:07;97816.00;;;16.10
24639;BMP180;1641;51.306;12.384;2023-03-14T11:50:02;97822.00;;;16.00
24639;BMP180;1641;51.306;12.384;2023-03-14T11:52:33;97825.00;;;16.30
24639;BMP180;1641;51.306;12.384;2023-03-14T11:55:25;97824.00;;;16.10
24639;BMP180;1641;51.306;12.384;2023-03-14T11:57:56;97833.00;;;16.20
24639;BMP180;1641;51.306;12.384;2023-03-14T12:00:24;97810.00;;;16.10
24639;BMP180;1641;51.306;12.384;2023-03-14T12:03:04;97828.00;;;16.30
24639;BMP180;1641;51.306;12.384;2023-03-14T12:05:57;97803.00;;;15.90
24639;BMP180;1641;51.306;12.384;2023-03-14T12:08:52;97808.00;;;16.00
24639;BMP180;1641;51.306;12.384;2023-03-14T12:11:33;97811.00;;;16.20
24639;BMP180;1641;51.306;12.384;2023-03-14T12:14:00;97802.00;;;16.10
24639;BMP180;1641;51.306;12.384;2023-03-14T12:16:46;97790.00;;;16.10
24639;BMP180;1641;51.306;12.384;2023-03-14T12:21:53;97777.00;;;15.90
24639;BMP180;1641;51.306;12.384;2023-03-14T12:24:23;97799.00;;;16.10
24639;BMP180;1641;51.306;12.384;2023-03-14T12:26:55;97766.00;;;16.50
24639;BMP180;1641;51.306;12.384;2023-03-14T12:29:21;97755.00;;;15.50
24639;BMP180;1641;51.306;12.384;2023-03-14T12:31:48;97752.00;;;15.70
24639;BMP180;1641;51.306;12.384;2023-03-14T12:44:46;97795.00;;;16.60
24639;BMP180;1641;51.306;12.384;2023-03-14T12:49:44;97786.00;;;16.60
24639;BMP180;1641;51.306;12.384;2023-03-14T12:52:22;97782.00;;;16.80
24639;BMP180;1641;51.306;12.384;2023-03-14T12:55:07;97775.00;;;17.00
24639;BMP180;1641;51.306;12.384;2023-03-14T13:00:23;97758.00;;;16.80
24639;BMP180;1641;51.306;12.384;2023-03-14T13:02:50;97731.00;;;16.80
24639;BMP180;1641;51.306;12.384;2023-03-14T13:05:23;97770.00;;;16.80
24639;BMP180;1641;51.306;12.384;2023-03-14T13:10:25;97770.00;;;16.90
24639;BMP180;1641;51.306;12.384;2023-03-14T13:12:54;97771.00;;;17.30
24639;BMP180;1641;51.306;12.384;2023-03-14T13:15:26;97758.00;;;16.90
24639;BMP180;1641;51.306;12.384;2023-03-14T13:17:55;97749.00;;;16.80
24639;BMP180;1641;51.306;12.384;2023-03-14T13:20:34;97733.00;;;16.60
24639;BMP180;1641;51.306;12.384;2023-03-14T13:23:03;97715.00;;;16.40
24639;BMP180;1641;51.306;12.384;2023-03-14T13:25:31;97741.00;;;16.30
24639;BMP180;1641;51.306;12.384;2023-03-14T13:27:58;97692.00;;;16.50
24639;BMP180;1641;51.306;12.384;2023-03-14T13:30:26;97716.00;;;16.70
24639;BMP180;1641;51.306;12.384;2023-03-14T13:32:53;97720.00;;;16.70
24639;BMP180;1641;51.306;12.384;2023-03-14T13:35:29;97714.00;;;17.10
24639;BMP180;1641;51.306;12.384;2023-03-14T13:38:02;97695.00;;;17.00
24639;BMP180;1641;51.306;12.384;2023-03-14T13:40:33;97683.00;;;17.00
24639;BMP180;1641;51.306;12.384;2023-03-14T13:43:01;97706.00;;;16.90
24639;BMP180;1641;51.306;12.384;2023-03-14T13:45:52;97731.00;;;16.90
24639;BMP180;1641;51.306;12.384;2023-03-14T13:48:29;97733.00;;;16.80
24639;BMP180;1641;51.306;12.384;2023-03-14T13:50:59;97744.00;;;17.00
24639;BMP180;1641;51.306;12.384;2023-03-14T13:53:33;97700.00;;;16.90
24639;BMP180;1641;51.306;12.384;2023-03-14T13:56:10;97700.00;;;16.90
24639;BMP180;1641;51.306;12.384;2023-03-14T13:58:38;97732.00;;;16.90
24639;BMP180;1641;51.306;12.384;2023-03-14T14:01:16;97718.00;;;17.00
24639;BMP180;1641;51.306;12.384;2023-03-14T14:04:05;97731.00;;;17.00
24639;BMP180;1641;51.306;12.384;2023-03-14T14:06:37;97690.00;;;17.10
24639;BMP180;1641;51.306;12.384;2023-03-14T14:09:12;97733.00;;;17.00
24639;BMP180;1641;51.306;12.384;2023-03-14T14:11:49;97731.00;;;17.00
24639;BMP180;1641;51.306;12.384;2023-03-14T14:14:25;97726.00;;;17.00
24639;BMP180;1641;51.306;12.384;2023-03-14T14:16:53;97695.00;;;16.80
24639;BMP180;1641;51.306;12.384;2023-03-14T14:19:21;97725.00;;;16.20
24639;BMP180;1641;51.306;12.384;2023-03-14T14:21:58;97720.00;;;16.40
24639;BMP180;1641;51.306;12.384;2023-03-14T14:24:29;97692.00;;;16.40
24639;BMP180;1641;51.306;12.384;2023-03-14T14:27:14;97735.00;;;16.30
24639;BMP180;1641;51.306;12.384;2023-03-14T14:29:42;97708.00;;;16.70
24639;BMP180;1641;51.306;12.384;2023-03-14T14:34:40;97739.00;;;16.80
24639;BMP180;1641;51.306;12.384;2023-03-14T14:37:18;97698.00;;;16.50
24639;BMP180;1641;51.306;12.384;2023-03-14T14:39:51;97717.00;;;16.50
24639;BMP180;1641;51.306;12.384;2023-03-14T14:42:19;97720.00;;;16.60
24639;BMP180;1641;51.306;12.384;2023-03-14T14:45:13;97742.00;;;16.50
24639;BMP180;1641;51.306;12.384;2023-03-14T14:50:29;97754.00;;;16.60
24639;BMP180;1641;51.306;12.384;2023-03-14T14:53:03;97758.00;;;16.10
24639;BMP180;1641;51.306;12.384;2023-03-14T14:55:52;97770.00;;;16.00
24639;BMP180;1641;51.306;12.384;2023-03-14T14:58:32;97780.00;;;15.50
24639;BMP180;1641;51.306;12.384;2023-03-14T15:01:23;97793.00;;;15.10
24639;BMP180;1641;51.306;12.384;2023-03-14T15:03:58;97773.00;;;14.50
24639;BMP180;1641;51.306;12.384;2023-03-14T15:06:27;97796.00;;;14.20
24639;BMP180;1641;51.306;12.384;2023-03-14T15:09:02;97731.00;;;13.90
24639;BMP180;1641;51.306;12.384;2023-03-14T15:11:27;97795.00;;;14.00
24639;BMP180;1641;51.306;12.384;2023-03-14T15:14:08;97825.00;;;13.90
24639;BMP180;1641;51.306;12.384;2023-03-14T15:16:41;97796.00;;;13.80